Tuesday, September 23, 2014
12:28 UTC
  |  Log In   |  Register Free
Airport Search:

Livermore Municipal Airport
(KLVK)

FAA data valid effective September 18, 2014 - November 13, 2014 (unless otherwise noted).

 
 
 
 
 
 
 
 
 
 
 
 
 
 

Current Aviation Weather for Livermore Municipal Airport (KLVK)

The most recent METAR observation for KLVK was updated at: 1210
METAR Summary (Translated METAR)
KLVK
231153Z AUTO 00000KT 10SM SCT013 16/13 A2997 RMK AO2 SLP144 T01560133 10178 20156 55003
KHWD
231154Z AUTO 00000KT 10SM OVC014 19/16 A2997 RMK AO2 SLP156 T01890161 10189 20183 56008
(14.5 nm SW from KLVK)
KOAK
231153Z 27005KT 10SM BKN014 17/14 A2997 RMK AO2 SLP148 T01720139 10183 20172 56007
(19.1 nm NW from KLVK)
TAF Summary (Translated TAF)
KOAK
(19.1 nm NW from KLVK)
231120Z 2312/2418 26008KT P6SM BKN014 FM231800 26005KT P6SM FEW015 FM232200 28014KT P6SM FEW010 FM240300 28009KT P6SM BKN200 FM240500 27008KT P6SM OVC015
  Airport Weather Conditions for KLVK

 Current Weather at LVK
61° F
A Few Clouds
North winds at 0.0 mph
LVK NOAA Radar

Pressure: 29.96 in
Humidity: 84%
Wind: Calm
Dew Point: 55.9°F
Visibility: 10.00 mi


Airport Weather Forecast for KLVK

Translated METAR and TAF for KLVK
Translated METAR for KLVK (1222 UTC 23 September 2014)
found at http://aviationweather.gov/adds/metars/
 
METAR text: KLVK 231206Z AUTO 00000KT 10SM BKN013 16/14 A2997 RMK AO2
Conditions at: KLVK (LIVERMORE , CA, US) observed 1206 UTC 23 September 2014
Temperature: 16.0°C (61°F)
Dewpoint: 14.0°C (57°F) [RH = 88%]
Pressure (altimeter): 29.97 inches Hg (1015.0 mb)
Winds: calm
Visibility: 10 or more miles (16+ km)
Ceiling: 1300 feet AGL
Clouds: broken clouds at 1300 feet AGL
Weather: automated observation with no human augmentation;
there may or may not be significant weather present at this time
Translated TAF for KLVK

There is no translated TAF available for this airport

Find All Airport Services Find A Hotel Find A Rental Car Find A Golf Course Find A Restaurant $100 Hamburger



FBO's on the Field
FBO Company Facility Photos Services Transportation Aviation Fuel Prices: Prices include tax
Catering Weather Repair Courtesy Rental Type 100LL JetA JetA+ MOGAS 8087
 
Livermore Municipal Airport

This FBO has not yet been rated
FS:Ascent
Last Updated: Sep-09
Login to update fuel prices
SS:
Contact Livermore Municipal AirportMore FBO Information
 
Add another FBO Facility Photos Catering Weather Repair Courtesy Rental Type 100LL JetA JetA+ MOGAS 8087
Services Transportation Aviation Fuel Prices: Prices include tax


model-print
model-print
model-print
model-print